createdAt,value
2018-09-21T00:01:12.492Z,12.00
2018-09-21T00:03:50.907Z,10.87
2018-09-21T00:06:25.346Z,12.93
2018-09-21T00:08:54.797Z,22.77
2018-09-21T00:11:23.703Z,23.97
2018-09-21T00:13:53.016Z,12.60
2018-09-21T00:16:22.426Z,10.87
2018-09-21T00:18:51.763Z,11.80
2018-09-21T00:21:21.166Z,20.47
2018-09-21T00:23:50.019Z,15.97
2018-09-21T00:26:19.298Z,12.17
2018-09-21T00:28:48.271Z,15.07
2018-09-21T00:31:17.349Z,13.20
2018-09-21T00:33:46.443Z,16.13
2018-09-21T00:36:15.700Z,16.63
2018-09-21T00:38:45.069Z,13.50
2018-09-21T00:41:14.231Z,14.93
2018-09-21T00:43:43.179Z,22.43
2018-09-21T00:46:12.647Z,16.27
2018-09-21T00:48:41.841Z,17.90
2018-09-21T00:51:11.081Z,13.63
2018-09-21T00:53:40.240Z,12.13
2018-09-21T00:56:09.367Z,17.33
2018-09-21T00:58:38.423Z,11.20
2018-09-21T01:01:07.749Z,12.73
2018-09-21T01:03:36.782Z,12.10
2018-09-21T01:06:05.729Z,25.40
2018-09-21T01:08:34.811Z,16.17
2018-09-21T01:11:03.848Z,18.73
2018-09-21T01:13:44.069Z,12.78
2018-09-21T01:16:18.260Z,20.35
2018-09-21T01:18:53.031Z,19.43
2018-09-21T01:21:29.764Z,18.42
2018-09-21T01:24:04.548Z,19.00
2018-09-21T01:26:39.770Z,16.60
2018-09-21T01:29:17.742Z,23.57
2018-09-21T01:31:53.493Z,12.60
2018-09-21T01:34:27.455Z,14.00
2018-09-21T01:37:01.803Z,14.40
2018-09-21T01:39:38.377Z,14.90
2018-09-21T01:42:14.200Z,13.77
2018-09-21T01:44:47.949Z,12.13
2018-09-21T01:47:27.297Z,25.33
2018-09-21T01:50:00.703Z,22.97
2018-09-21T01:52:37.063Z,17.02
2018-09-21T01:55:10.384Z,15.75
2018-09-21T01:57:43.464Z,17.60
2018-09-21T02:00:18.079Z,18.92
2018-09-21T02:02:51.739Z,16.57
2018-09-21T02:05:26.135Z,22.80
2018-09-21T02:08:01.418Z,35.35
2018-09-21T02:10:36.279Z,20.70
2018-09-21T02:13:10.531Z,19.40
2018-09-21T02:15:45.434Z,22.93
2018-09-21T02:18:23.839Z,21.70
2018-09-21T02:20:57.392Z,23.50
2018-09-21T02:23:33.036Z,19.73
2018-09-21T02:26:08.776Z,16.90
2018-09-21T02:28:42.754Z,19.92
2018-09-21T02:31:20.479Z,22.70
2018-09-21T02:33:54.914Z,18.75
2018-09-21T02:36:30.620Z,21.45
2018-09-21T02:39:05.812Z,24.53
2018-09-21T02:41:40.806Z,28.02
2018-09-21T02:44:24.771Z,20.57
2018-09-21T02:47:06.653Z,15.38
2018-09-21T02:49:40.993Z,17.55
2018-09-21T02:52:16.580Z,16.57
2018-09-21T02:54:50.413Z,25.80
2018-09-21T02:57:26.481Z,14.98
2018-09-21T03:00:01.383Z,19.57
2018-09-21T03:02:35.949Z,17.32
2018-09-21T03:05:09.804Z,15.50
2018-09-21T03:07:43.431Z,12.85
2018-09-21T03:10:18.292Z,28.33
2018-09-21T03:13:02.488Z,15.75
2018-09-21T03:15:46.362Z,20.85
2018-09-21T03:18:21.172Z,18.92
2018-09-21T03:20:56.077Z,20.40
2018-09-21T03:23:33.329Z,22.48
2018-09-21T03:26:08.761Z,25.68
2018-09-21T03:28:42.034Z,21.20
2018-09-21T03:31:16.786Z,19.75
2018-09-21T03:33:51.441Z,29.50
2018-09-21T03:36:25.688Z,19.30
2018-09-21T03:38:59.256Z,21.85
2018-09-21T03:41:33.971Z,19.82
2018-09-21T03:44:09.143Z,20.30
2018-09-21T03:46:42.902Z,18.50
2018-09-21T03:49:15.974Z,17.00
2018-09-21T03:51:49.579Z,22.20
2018-09-21T03:54:22.573Z,19.62
2018-09-21T03:56:56.201Z,17.60
2018-09-21T03:59:29.410Z,27.90
2018-09-21T04:02:03.709Z,23.70
2018-09-21T04:04:43.768Z,23.75
2018-09-21T04:07:17.855Z,21.25
2018-09-21T04:09:51.479Z,29.72
2018-09-21T04:12:25.151Z,27.13
2018-09-21T04:15:00.169Z,18.42
2018-09-21T04:17:33.048Z,17.32
2018-09-21T04:20:07.270Z,31.77
2018-09-21T04:22:40.656Z,13.45
2018-09-21T04:25:17.752Z,24.43
2018-09-21T04:27:50.872Z,15.80
2018-09-21T04:30:24.508Z,17.30
2018-09-21T04:33:02.063Z,19.50
2018-09-21T04:35:34.994Z,19.20
2018-09-21T04:38:09.261Z,24.98
2018-09-21T04:40:43.049Z,27.10
2018-09-21T04:43:17.045Z,26.48
2018-09-21T04:45:50.519Z,30.82
2018-09-21T04:48:24.878Z,19.10
2018-09-21T04:50:58.920Z,24.18
2018-09-21T04:53:32.518Z,23.50
2018-09-21T04:56:07.024Z,19.32
2018-09-21T04:58:40.488Z,19.25
2018-09-21T05:01:14.962Z,23.90
2018-09-21T05:03:49.116Z,20.57
2018-09-21T05:06:23.004Z,29.95
2018-09-21T05:08:56.242Z,30.40
2018-09-21T05:11:29.313Z,28.85
2018-09-21T05:14:02.421Z,26.40
2018-09-21T05:16:36.529Z,28.87
2018-09-21T05:19:09.527Z,18.55
2018-09-21T05:21:42.462Z,23.57
2018-09-21T05:24:15.313Z,32.10
2018-09-21T05:26:48.585Z,35.00
2018-09-21T05:29:21.434Z,26.73
2018-09-21T05:31:55.861Z,35.45
2018-09-21T05:34:29.068Z,35.30
2018-09-21T05:37:03.595Z,37.60
2018-09-21T05:39:37.574Z,38.13
2018-09-21T05:42:10.858Z,28.17
2018-09-21T05:44:45.143Z,34.70
2018-09-21T05:47:19.314Z,32.60
2018-09-21T05:49:53.492Z,41.30
2018-09-21T05:52:25.804Z,39.63
2018-09-21T05:54:56.849Z,35.60
2018-09-21T05:57:30.511Z,26.95
2018-09-21T06:00:04.376Z,34.95
2018-09-21T06:02:36.109Z,38.02
2018-09-21T06:05:11.239Z,44.42
2018-09-21T06:07:43.095Z,30.65
2018-09-21T06:10:15.584Z,37.15
2018-09-21T06:12:50.304Z,37.88
2018-09-21T06:15:22.503Z,28.17
2018-09-21T06:17:54.850Z,21.87
2018-09-21T06:20:28.001Z,15.47
2018-09-21T06:23:01.447Z,25.90
2018-09-21T06:25:33.142Z,14.03
2018-09-21T06:28:06.184Z,13.97
2018-09-21T06:30:37.292Z,18.87
2018-09-21T06:33:10.533Z,18.30
2018-09-21T06:35:44.018Z,23.57
2018-09-21T06:38:14.516Z,12.73
2018-09-21T06:40:47.299Z,26.33
2018-09-21T06:43:20.116Z,22.30
2018-09-21T06:45:52.991Z,13.40
2018-09-21T06:48:27.344Z,16.60
2018-09-21T06:51:00.685Z,16.00
2018-09-21T06:53:31.194Z,12.80
2018-09-21T06:56:07.411Z,16.57
2018-09-21T06:58:38.421Z,11.90
2018-09-21T07:01:18.021Z,16.70
2018-09-21T07:03:50.037Z,10.33
2018-09-21T07:06:28.524Z,26.63
2018-09-21T07:09:00.527Z,16.63
2018-09-21T07:11:32.608Z,19.50
2018-09-21T07:14:04.117Z,12.80
2018-09-21T07:16:34.752Z,11.80
2018-09-21T07:19:06.557Z,12.60
2018-09-21T07:21:40.682Z,21.50
2018-09-21T07:24:12.682Z,16.33
2018-09-21T07:26:44.460Z,18.80
2018-09-21T07:29:15.625Z,12.33
2018-09-21T07:31:46.893Z,12.03
2018-09-21T07:34:17.924Z,16.27
2018-09-21T07:36:51.116Z,16.77
2018-09-21T07:39:22.345Z,13.93
2018-09-21T07:41:54.264Z,12.50
2018-09-21T07:44:31.083Z,20.90
2018-09-21T07:47:02.962Z,13.03
2018-09-21T07:49:37.405Z,11.00
2018-09-21T07:52:09.703Z,12.87
2018-09-21T07:54:42.821Z,11.00
2018-09-21T07:57:14.158Z,13.93
2018-09-21T07:59:45.449Z,10.27
2018-09-21T08:02:16.277Z,12.00
2018-09-21T08:04:47.691Z,16.40
2018-09-21T08:07:31.858Z,11.37
2018-09-21T08:10:02.454Z,16.87
2018-09-21T08:12:33.253Z,21.73
2018-09-21T08:15:04.399Z,21.67
2018-09-21T08:17:34.889Z,19.93
2018-09-21T08:20:08.533Z,16.63
2018-09-21T08:22:43.960Z,13.93
2018-09-21T08:25:15.566Z,9.50
2018-09-21T08:27:48.664Z,13.60
2018-09-21T08:30:20.686Z,9.43
2018-09-21T08:32:51.874Z,15.47
2018-09-21T08:35:23.623Z,24.80
2018-09-21T08:37:54.018Z,10.33
2018-09-21T08:40:25.834Z,10.80
2018-09-21T08:42:59.033Z,11.80
2018-09-21T08:45:31.373Z,11.27
2018-09-21T08:48:03.741Z,13.93
2018-09-21T08:50:34.828Z,15.20
2018-09-21T08:53:05.520Z,11.90
2018-09-21T08:55:37.370Z,14.20
2018-09-21T08:58:08.340Z,25.97
2018-09-21T09:00:40.014Z,13.20
2018-09-21T09:03:11.227Z,13.33
2018-09-21T09:05:43.040Z,8.83
2018-09-21T09:08:13.769Z,14.10
2018-09-21T09:10:44.089Z,13.87
2018-09-21T09:13:14.598Z,8.50
2018-09-21T09:15:46.979Z,15.30
2018-09-21T09:18:22.982Z,6.67
2018-09-21T09:20:54.964Z,9.03
2018-09-21T09:23:25.095Z,18.53
2018-09-21T09:25:55.132Z,17.67
2018-09-21T09:28:25.594Z,16.37
2018-09-21T09:30:57.089Z,15.43
2018-09-21T09:33:29.475Z,16.03
2018-09-21T09:36:00.017Z,16.73
2018-09-21T09:38:30.471Z,7.77
2018-09-21T09:41:01.878Z,11.00
2018-09-21T09:43:32.840Z,9.37
2018-09-21T09:46:03.249Z,18.63
2018-09-21T09:48:33.737Z,13.67
2018-09-21T09:51:06.249Z,14.63
2018-09-21T09:53:36.681Z,15.53
2018-09-21T09:56:07.116Z,9.13
2018-09-21T09:58:38.325Z,8.03
2018-09-21T10:01:09.366Z,19.47
2018-09-21T10:03:41.658Z,13.43
2018-09-21T10:06:12.169Z,20.17
2018-09-21T10:08:43.551Z,13.10
2018-09-21T10:11:14.939Z,15.27
2018-09-21T10:13:46.428Z,14.60
2018-09-21T10:16:16.456Z,22.60
2018-09-21T10:18:48.626Z,17.07
2018-09-21T10:21:19.031Z,11.60
2018-09-21T10:23:50.008Z,13.20
2018-09-21T10:26:24.452Z,11.70
2018-09-21T10:29:26.342Z,32.63
2018-09-21T10:31:59.587Z,15.03
2018-09-21T10:34:31.349Z,13.63
2018-09-21T10:37:02.916Z,12.00
2018-09-21T10:39:33.619Z,13.00
2018-09-21T10:42:06.165Z,11.50
2018-09-21T10:44:38.403Z,15.40
2018-09-21T10:47:19.313Z,17.90
2018-09-21T10:50:08.018Z,22.63
2018-09-21T10:52:40.255Z,10.53
2018-09-21T10:55:11.351Z,10.07
2018-09-21T10:57:43.485Z,12.77
2018-09-21T11:00:15.765Z,15.23
2018-09-21T11:02:48.551Z,20.73
2018-09-21T11:05:19.919Z,16.57
2018-09-21T11:07:52.989Z,24.63
2018-09-21T11:10:26.923Z,18.53
2018-09-21T11:12:59.131Z,13.70
2018-09-21T11:15:31.031Z,9.80
2018-09-21T11:18:03.119Z,8.13
2018-09-21T11:20:35.889Z,14.10
2018-09-21T11:23:08.707Z,16.20
2018-09-21T11:25:40.053Z,13.20
2018-09-21T11:28:11.036Z,16.10
2018-09-21T11:30:44.060Z,11.77
2018-09-21T11:33:16.045Z,10.23
2018-09-21T11:35:45.286Z,19.73
2018-09-21T11:38:14.530Z,14.03
2018-09-21T11:40:43.913Z,15.03
2018-09-21T11:43:14.064Z,18.17
2018-09-21T11:45:43.512Z,19.80
2018-09-21T11:48:12.557Z,14.47
2018-09-21T11:50:41.687Z,18.77
2018-09-21T11:53:10.609Z,9.80
2018-09-21T11:55:39.377Z,11.53
2018-09-21T11:58:08.977Z,20.93
2018-09-21T12:00:37.946Z,15.27
2018-09-21T12:03:07.017Z,13.80
2018-09-21T12:05:36.311Z,16.40
2018-09-21T12:08:05.731Z,11.13
2018-09-21T12:10:34.775Z,25.40
2018-09-21T12:13:04.077Z,11.30
2018-09-21T12:15:33.100Z,18.40
2018-09-21T12:18:02.268Z,9.10
2018-09-21T12:20:31.132Z,11.20
2018-09-21T12:23:00.212Z,13.50
2018-09-21T12:25:29.385Z,19.63
2018-09-21T12:27:59.370Z,13.20
2018-09-21T12:30:28.500Z,13.73
2018-09-21T12:32:57.329Z,22.50
2018-09-21T12:35:26.209Z,12.37
2018-09-21T12:37:55.349Z,16.23
2018-09-21T12:40:24.265Z,13.27
2018-09-21T12:42:53.132Z,22.40
2018-09-21T12:45:22.219Z,19.03
2018-09-21T12:47:51.074Z,10.03
2018-09-21T12:50:20.161Z,8.30
2018-09-21T12:52:49.516Z,17.60
2018-09-21T12:55:18.961Z,20.00
2018-09-21T12:57:48.104Z,17.40
2018-09-21T13:00:17.365Z,14.57
2018-09-21T13:02:46.576Z,10.77
2018-09-21T13:05:15.722Z,20.10
2018-09-21T13:07:45.244Z,15.80
2018-09-21T13:10:14.489Z,16.40
2018-09-21T13:12:43.993Z,11.30
2018-09-21T13:15:13.189Z,8.40
2018-09-21T13:17:42.306Z,9.93
2018-09-21T13:20:11.372Z,9.80
2018-09-21T13:22:40.624Z,8.10
2018-09-21T13:25:09.797Z,12.43
2018-09-21T13:27:38.727Z,9.90
2018-09-21T13:30:08.386Z,26.07
2018-09-21T13:32:37.662Z,9.57
2018-09-21T13:35:07.363Z,17.27
2018-09-21T13:37:36.565Z,16.73
2018-09-21T13:40:05.991Z,14.67
2018-09-21T13:42:34.829Z,5.50
2018-09-21T13:45:03.997Z,7.20
2018-09-21T13:47:33.065Z,16.33
2018-09-21T13:50:02.262Z,8.10
2018-09-21T13:52:34.325Z,5.00
2018-09-21T13:55:03.149Z,8.50
2018-09-21T13:57:33.110Z,4.17
2018-09-21T14:00:02.688Z,10.37
2018-09-21T14:02:32.253Z,9.13
2018-09-21T14:05:04.311Z,10.00
2018-09-21T14:07:35.172Z,6.63
2018-09-21T14:10:04.466Z,21.67
2018-09-21T14:12:33.514Z,10.50
2018-09-21T14:15:02.515Z,3.60
2018-09-21T14:17:32.104Z,7.73
2018-09-21T14:20:01.307Z,11.60
2018-09-21T14:22:30.259Z,8.00
2018-09-21T14:24:59.508Z,18.30
2018-09-21T14:27:28.922Z,9.43
2018-09-21T14:29:58.970Z,4.73
2018-09-21T14:32:28.673Z,3.73
2018-09-21T14:34:57.565Z,5.70
2018-09-21T14:37:26.586Z,4.90
2018-09-21T14:39:55.935Z,9.00
2018-09-21T14:42:25.361Z,13.13
2018-09-21T14:44:54.363Z,6.57
2018-09-21T14:47:23.358Z,10.60
2018-09-21T14:49:52.220Z,14.03
2018-09-21T14:52:21.201Z,15.93
2018-09-21T14:54:50.132Z,8.00
2018-09-21T14:57:19.120Z,6.50
2018-09-21T14:59:50.645Z,5.37
2018-09-21T15:02:19.612Z,4.77
2018-09-21T15:04:48.402Z,9.10
2018-09-21T15:07:17.349Z,13.23
2018-09-21T15:09:46.707Z,18.03
2018-09-21T15:12:16.053Z,62.13
2018-09-21T15:14:45.001Z,20.17
2018-09-21T15:17:14.024Z,17.83
2018-09-21T15:19:43.296Z,14.07
2018-09-21T15:22:12.193Z,15.33
2018-09-21T15:24:41.044Z,48.17
2018-09-21T15:27:10.180Z,28.17
2018-09-21T15:29:39.114Z,8.23
2018-09-21T15:32:08.041Z,9.20
2018-09-21T15:34:36.830Z,5.23
2018-09-21T15:37:05.712Z,8.33
2018-09-21T15:39:34.514Z,8.73
2018-09-21T15:42:03.665Z,3.62
2018-09-21T15:44:32.875Z,4.35
2018-09-21T15:47:03.817Z,7.22
2018-09-21T15:49:33.291Z,13.18
2018-09-21T15:52:02.203Z,2.52
2018-09-21T15:54:31.261Z,6.00
2018-09-21T15:57:00.057Z,3.58
2018-09-21T15:59:28.989Z,3.77
2018-09-21T16:01:57.819Z,7.78
2018-09-21T16:04:27.618Z,2.90
2018-09-21T16:06:56.569Z,4.53
2018-09-21T16:09:25.539Z,9.68
2018-09-21T16:11:55.851Z,3.35
2018-09-21T16:14:25.749Z,3.95
2018-09-21T16:16:55.363Z,5.28
2018-09-21T16:19:24.836Z,4.90
2018-09-21T16:21:53.694Z,3.40
2018-09-21T16:24:22.606Z,5.97
2018-09-21T16:26:51.580Z,6.72
2018-09-21T16:29:20.694Z,3.60
2018-09-21T16:31:49.726Z,3.72
2018-09-21T16:34:18.532Z,2.42
2018-09-21T16:36:47.461Z,14.63
2018-09-21T16:39:16.371Z,3.15
2018-09-21T16:41:45.313Z,5.12
2018-09-21T16:44:14.057Z,3.58
2018-09-21T16:46:43.010Z,5.67
2018-09-21T16:49:12.105Z,3.30
2018-09-21T16:51:40.919Z,8.40
2018-09-21T16:54:09.752Z,7.00
2018-09-21T16:56:38.749Z,9.23
2018-09-21T16:59:37.070Z,6.90
2018-09-21T17:02:35.275Z,9.93
2018-09-21T17:05:04.253Z,6.65
2018-09-21T17:07:33.315Z,5.50
2018-09-21T17:10:02.274Z,3.15
2018-09-21T17:12:31.156Z,4.92
2018-09-21T17:15:00.361Z,5.80
2018-09-21T17:17:29.386Z,8.43
2018-09-21T17:19:58.173Z,5.00
2018-09-21T17:22:26.963Z,2.92
2018-09-21T17:24:56.165Z,8.43
2018-09-21T17:27:25.033Z,5.75
2018-09-21T17:29:54.076Z,4.47
2018-09-21T17:32:22.847Z,4.83
2018-09-21T17:34:51.928Z,5.25
2018-09-21T17:37:20.921Z,10.13
2018-09-21T17:39:49.815Z,6.83
2018-09-21T17:42:18.626Z,3.02
2018-09-21T17:44:47.654Z,9.98
2018-09-21T17:47:16.547Z,3.25
2018-09-21T17:49:45.334Z,7.20
2018-09-21T17:52:14.173Z,6.40
2018-09-21T17:54:43.346Z,4.70
2018-09-21T17:57:12.222Z,6.67
2018-09-21T17:59:41.354Z,5.85
2018-09-21T18:02:10.428Z,6.22
2018-09-21T18:04:39.398Z,4.65
2018-09-21T18:07:08.919Z,11.60
2018-09-21T18:09:38.186Z,9.23
2018-09-21T18:12:08.122Z,3.45
2018-09-21T18:14:37.172Z,7.75
2018-09-21T18:17:06.365Z,3.65
2018-09-21T18:19:35.350Z,11.20
2018-09-21T18:22:04.365Z,5.10
2018-09-21T18:24:33.452Z,7.85
2018-09-21T18:27:02.429Z,11.53
2018-09-21T18:29:31.273Z,10.32
2018-09-21T18:32:00.313Z,7.35
2018-09-21T18:34:29.302Z,6.15
2018-09-21T18:36:58.073Z,7.87
2018-09-21T18:39:27.396Z,5.90
2018-09-21T18:41:56.360Z,9.63
2018-09-21T18:44:25.648Z,9.50
2018-09-21T18:46:54.698Z,7.65
2018-09-21T18:49:23.876Z,7.20
2018-09-21T18:51:52.993Z,10.50
2018-09-21T18:54:22.513Z,14.53
2018-09-21T18:56:51.614Z,16.35
2018-09-21T18:59:20.357Z,6.60
2018-09-21T19:01:49.223Z,9.60
2018-09-21T19:04:18.363Z,13.40
2018-09-21T19:06:47.386Z,7.42
2018-09-21T19:09:16.173Z,6.97
2018-09-21T19:11:45.340Z,7.58
2018-09-21T19:14:14.602Z,8.93
2018-09-21T19:16:43.651Z,4.75
2018-09-21T19:19:12.681Z,9.13
2018-09-21T19:21:41.970Z,7.55
2018-09-21T19:24:10.934Z,9.60
2018-09-21T19:26:39.897Z,8.88
2018-09-21T19:29:09.605Z,10.13
2018-09-21T19:31:38.763Z,16.73
2018-09-21T19:34:08.043Z,10.13
2018-09-21T19:36:37.165Z,6.25
2018-09-21T19:39:09.185Z,7.42
2018-09-21T19:41:38.048Z,11.63
2018-09-21T19:44:07.073Z,9.30
2018-09-21T19:46:36.081Z,9.85
2018-09-21T19:49:04.881Z,9.58
2018-09-21T19:51:33.912Z,6.50
2018-09-21T19:54:02.849Z,10.85
2018-09-21T19:56:31.630Z,13.80
2018-09-21T19:59:00.466Z,8.93
2018-09-21T20:01:29.227Z,7.55
2018-09-21T20:04:04.934Z,14.55
2018-09-21T20:06:35.000Z,7.08
2018-09-21T20:09:05.161Z,7.60
2018-09-21T20:11:33.940Z,4.97
2018-09-21T20:14:02.900Z,15.72
2018-09-21T20:16:32.002Z,10.53
2018-09-21T20:19:00.781Z,6.67
2018-09-21T20:21:30.160Z,8.13
2018-09-21T20:23:59.414Z,11.12
2018-09-21T20:26:28.123Z,10.82
2018-09-21T20:28:57.101Z,19.00
2018-09-21T20:31:31.337Z,18.25
2018-09-21T20:34:00.329Z,19.95
2018-09-21T20:36:29.245Z,16.12
2018-09-21T20:38:58.223Z,13.25
2018-09-21T20:41:27.609Z,19.40
2018-09-21T20:43:57.058Z,22.13
2018-09-21T20:46:26.177Z,22.40
2018-09-21T20:48:55.489Z,35.35
2018-09-21T20:51:24.396Z,26.62
2018-09-21T20:53:53.306Z,25.77
2018-09-21T20:56:22.289Z,29.42
2018-09-21T20:58:51.098Z,13.48
2018-09-21T21:01:20.150Z,14.23
2018-09-21T21:03:49.378Z,14.68
2018-09-21T21:06:18.519Z,11.97
2018-09-21T21:08:47.329Z,11.43
2018-09-21T21:11:16.425Z,8.95
2018-09-21T21:13:45.669Z,7.72
2018-09-21T21:16:14.854Z,9.63
2018-09-21T21:18:43.603Z,22.87
2018-09-21T21:21:12.514Z,7.72
2018-09-21T21:23:41.522Z,9.98
2018-09-21T21:26:10.619Z,8.38
2018-09-21T21:28:39.800Z,6.33
2018-09-21T21:31:08.652Z,13.45
2018-09-21T21:33:37.795Z,8.03
2018-09-21T21:36:06.931Z,17.42
2018-09-21T21:38:35.740Z,7.67
2018-09-21T21:41:04.715Z,11.78
2018-09-21T21:43:33.702Z,8.95
2018-09-21T21:46:02.502Z,6.17
2018-09-21T21:48:31.404Z,10.98
2018-09-21T21:51:00.234Z,7.28
2018-09-21T21:53:29.179Z,4.33
2018-09-21T21:55:57.989Z,11.22
2018-09-21T21:58:26.768Z,7.78
2018-09-21T22:01:00.938Z,9.43
2018-09-21T22:03:29.914Z,13.10
2018-09-21T22:05:59.119Z,5.87
2018-09-21T22:08:27.960Z,6.30
2018-09-21T22:10:56.720Z,7.55
2018-09-21T22:13:31.252Z,8.73
2018-09-21T22:16:00.104Z,6.55
2018-09-21T22:18:28.944Z,5.75
2018-09-21T22:20:57.768Z,11.22
2018-09-21T22:23:26.938Z,9.48
2018-09-21T22:25:55.751Z,10.23
2018-09-21T22:28:24.891Z,8.73
2018-09-21T22:30:53.663Z,4.25
2018-09-21T22:33:22.454Z,6.22
2018-09-21T22:35:51.414Z,5.95
2018-09-21T22:38:20.670Z,7.92
2018-09-21T22:40:50.056Z,7.33
2018-09-21T22:43:18.997Z,6.67
2018-09-21T22:45:47.875Z,14.18
2018-09-21T22:48:16.794Z,13.50
2018-09-21T22:50:46.005Z,5.72
2018-09-21T22:53:15.020Z,7.62
2018-09-21T22:55:43.865Z,13.53
2018-09-21T22:58:12.653Z,10.40
2018-09-21T23:00:41.562Z,6.90
2018-09-21T23:03:10.279Z,6.53
2018-09-21T23:05:39.774Z,7.25
2018-09-21T23:08:08.744Z,5.45
2018-09-21T23:10:37.905Z,6.25
2018-09-21T23:13:06.921Z,3.98
2018-09-21T23:15:35.737Z,13.95
2018-09-21T23:18:04.666Z,6.72
2018-09-21T23:20:33.613Z,6.47
2018-09-21T23:23:02.446Z,14.20
2018-09-21T23:25:31.937Z,5.35
2018-09-21T23:28:01.021Z,5.97
2018-09-21T23:30:29.999Z,9.83
2018-09-21T23:32:58.732Z,12.30
2018-09-21T23:35:27.518Z,7.85
2018-09-21T23:37:56.664Z,5.97
2018-09-21T23:40:25.884Z,3.22
2018-09-21T23:42:55.614Z,8.90
2018-09-21T23:45:24.651Z,6.25
2018-09-21T23:47:53.633Z,8.85
2018-09-21T23:50:22.925Z,2.30
2018-09-21T23:52:52.081Z,9.58
2018-09-21T23:55:20.945Z,10.30
2018-09-21T23:57:50.036Z,9.40
